sensor_id;sensor_type;location;lat;lon;timestamp;pressure;altitude;pressure_sealevel;temperature;humidity
71774;BME280;59607;52.130;5.430;2024-01-06T00:02:07;100471.41;;;5.68;100.00
71774;BME280;59607;52.130;5.430;2024-01-06T00:04:39;100471.28;;;5.70;100.00
71774;BME280;59607;52.130;5.430;2024-01-06T00:07:08;100474.41;;;5.74;100.00
71774;BME280;59607;52.130;5.430;2024-01-06T00:09:41;100477.59;;;5.67;100.00
71774;BME280;59607;52.130;5.430;2024-01-06T00:12:15;100480.03;;;5.69;100.00
71774;BME280;59607;52.130;5.430;2024-01-06T00:14:49;100484.00;;;5.73;100.00
71774;BME280;59607;52.130;5.430;2024-01-06T00:17:16;100489.47;;;5.70;100.00
71774;BME280;59607;52.130;5.430;2024-01-06T00:19:42;100499.63;;;5.63;100.00
71774;BME280;59607;52.130;5.430;2024-01-06T00:22:14;100505.53;;;5.55;100.00
71774;BME280;59607;52.130;5.430;2024-01-06T00:24:41;100511.28;;;5.49;100.00
71774;BME280;59607;52.130;5.430;2024-01-06T00:27:11;100514.16;;;5.46;100.00
71774;BME280;59607;52.130;5.430;2024-01-06T00:29:42;100514.00;;;5.48;100.00
71774;BME280;59607;52.130;5.430;2024-01-06T00:32:10;100516.19;;;5.42;100.00
71774;BME280;59607;52.130;5.430;2024-01-06T00:34:40;100513.47;;;5.44;100.00
71774;BME280;59607;52.130;5.430;2024-01-06T00:37:06;100514.44;;;5.43;100.00
71774;BME280;59607;52.130;5.430;2024-01-06T00:39:33;100508.25;;;5.44;100.00
71774;BME280;59607;52.130;5.430;2024-01-06T00:42:19;100517.97;;;5.42;100.00
71774;BME280;59607;52.130;5.430;2024-01-06T00:44:46;100517.03;;;5.43;100.00
71774;BME280;59607;52.130;5.430;2024-01-06T00:47:12;100516.91;;;5.45;100.00
71774;BME280;59607;52.130;5.430;2024-01-06T00:49:39;100521.69;;;5.49;100.00
71774;BME280;59607;52.130;5.430;2024-01-06T00:52:06;100521.81;;;5.48;100.00
71774;BME280;59607;52.130;5.430;2024-01-06T00:54:35;100525.50;;;5.45;100.00
71774;BME280;59607;52.130;5.430;2024-01-06T00:57:07;100519.06;;;5.39;100.00
71774;BME280;59607;52.130;5.430;2024-01-06T00:59:36;100528.25;;;5.43;100.00
71774;BME280;59607;52.130;5.430;2024-01-06T01:02:03;100530.84;;;5.43;100.00
71774;BME280;59607;52.130;5.430;2024-01-06T01:04:32;100518.66;;;5.34;100.00
71774;BME280;59607;52.130;5.430;2024-01-06T01:06:58;100540.16;;;5.26;100.00
71774;BME280;59607;52.130;5.430;2024-01-06T01:09:25;100536.44;;;5.29;100.00
71774;BME280;59607;52.130;5.430;2024-01-06T01:11:51;100544.38;;;5.27;100.00
71774;BME280;59607;52.130;5.430;2024-01-06T01:14:24;100545.06;;;5.29;100.00
71774;BME280;59607;52.130;5.430;2024-01-06T01:16:50;100557.25;;;5.29;100.00
71774;BME280;59607;52.130;5.430;2024-01-06T01:19:16;100553.13;;;5.16;100.00
71774;BME280;59607;52.130;5.430;2024-01-06T01:22:03;100560.38;;;5.13;100.00
71774;BME280;59607;52.130;5.430;2024-01-06T01:24:37;100573.50;;;5.11;100.00
71774;BME280;59607;52.130;5.430;2024-01-06T01:27:06;100571.16;;;5.08;100.00
71774;BME280;59607;52.130;5.430;2024-01-06T01:29:36;100574.19;;;5.13;100.00
71774;BME280;59607;52.130;5.430;2024-01-06T01:32:03;100572.00;;;5.09;100.00
71774;BME280;59607;52.130;5.430;2024-01-06T01:34:36;100584.00;;;5.00;100.00
71774;BME280;59607;52.130;5.430;2024-01-06T01:37:03;100592.06;;;4.97;100.00
71774;BME280;59607;52.130;5.430;2024-01-06T01:39:32;100591.25;;;4.96;100.00
71774;BME280;59607;52.130;5.430;2024-01-06T01:42:01;100586.03;;;4.86;100.00
71774;BME280;59607;52.130;5.430;2024-01-06T01:44:27;100600.53;;;4.89;100.00
71774;BME280;59607;52.130;5.430;2024-01-06T01:47:04;100607.34;;;4.90;100.00
71774;BME280;59607;52.130;5.430;2024-01-06T01:49:31;100615.47;;;4.97;100.00
71774;BME280;59607;52.130;5.430;2024-01-06T01:52:05;100609.97;;;4.90;100.00
71774;BME280;59607;52.130;5.430;2024-01-06T01:54:31;100610.22;;;4.87;100.00
71774;BME280;59607;52.130;5.430;2024-01-06T01:56:58;100611.44;;;4.82;100.00
71774;BME280;59607;52.130;5.430;2024-01-06T01:59:38;100615.53;;;4.85;100.00
71774;BME280;59607;52.130;5.430;2024-01-06T02:02:20;100627.22;;;4.91;100.00
71774;BME280;59607;52.130;5.430;2024-01-06T02:04:55;100624.91;;;4.98;100.00
71774;BME280;59607;52.130;5.430;2024-01-06T02:07:43;100626.81;;;4.96;100.00
71774;BME280;59607;52.130;5.430;2024-01-06T02:10:17;100629.41;;;4.96;100.00
71774;BME280;59607;52.130;5.430;2024-01-06T02:12:44;100627.13;;;5.02;100.00
71774;BME280;59607;52.130;5.430;2024-01-06T02:15:12;100636.41;;;5.05;100.00
71774;BME280;59607;52.130;5.430;2024-01-06T02:17:42;100631.78;;;5.09;100.00
71774;BME280;59607;52.130;5.430;2024-01-06T02:20:14;100634.53;;;5.07;100.00
71774;BME280;59607;52.130;5.430;2024-01-06T02:22:47;100637.25;;;5.05;100.00
71774;BME280;59607;52.130;5.430;2024-01-06T02:25:16;100644.34;;;5.03;100.00
71774;BME280;59607;52.130;5.430;2024-01-06T02:27:50;100643.16;;;5.08;100.00
71774;BME280;59607;52.130;5.430;2024-01-06T02:30:20;100641.63;;;5.05;100.00
71774;BME280;59607;52.130;5.430;2024-01-06T02:32:57;100646.00;;;5.04;100.00
71774;BME280;59607;52.130;5.430;2024-01-06T02:35:31;100645.06;;;5.05;100.00
71774;BME280;59607;52.130;5.430;2024-01-06T02:37:58;100650.00;;;5.09;100.00
71774;BME280;59607;52.130;5.430;2024-01-06T02:40:25;100648.22;;;5.09;100.00
71774;BME280;59607;52.130;5.430;2024-01-06T02:42:56;100656.97;;;5.08;100.00
71774;BME280;59607;52.130;5.430;2024-01-06T02:45:22;100666.97;;;5.13;100.00
71774;BME280;59607;52.130;5.430;2024-01-06T02:47:51;100667.75;;;5.03;100.00
71774;BME280;59607;52.130;5.430;2024-01-06T02:50:25;100676.13;;;5.07;100.00
71774;BME280;59607;52.130;5.430;2024-01-06T02:52:54;100672.41;;;5.10;100.00
71774;BME280;59607;52.130;5.430;2024-01-06T02:55:24;100674.88;;;5.11;100.00
71774;BME280;59607;52.130;5.430;2024-01-06T02:57:50;100675.03;;;5.10;100.00
71774;BME280;59607;52.130;5.430;2024-01-06T03:00:25;100673.66;;;5.05;100.00
71774;BME280;59607;52.130;5.430;2024-01-06T03:02:52;100673.91;;;5.02;100.00
71774;BME280;59607;52.130;5.430;2024-01-06T03:05:21;100677.16;;;4.94;100.00
71774;BME280;59607;52.130;5.430;2024-01-06T03:07:55;100684.47;;;4.79;100.00
71774;BME280;59607;52.130;5.430;2024-01-06T03:10:26;100682.13;;;4.76;100.00
71774;BME280;59607;52.130;5.430;2024-01-06T03:12:52;100685.97;;;4.82;100.00
71774;BME280;59607;52.130;5.430;2024-01-06T03:15:19;100685.44;;;4.78;100.00
71774;BME280;59607;52.130;5.430;2024-01-06T03:17:48;100688.16;;;4.77;100.00
71774;BME280;59607;52.130;5.430;2024-01-06T03:20:18;100692.00;;;4.82;100.00
71774;BME280;59607;52.130;5.430;2024-01-06T03:22:45;100703.22;;;4.83;100.00
71774;BME280;59607;52.130;5.430;2024-01-06T03:25:23;100707.28;;;4.76;100.00
71774;BME280;59607;52.130;5.430;2024-01-06T03:27:53;100712.59;;;4.74;100.00
71774;BME280;59607;52.130;5.430;2024-01-06T03:30:23;100706.69;;;4.72;100.00
71774;BME280;59607;52.130;5.430;2024-01-06T03:32:50;100717.47;;;4.67;100.00
71774;BME280;59607;52.130;5.430;2024-01-06T03:35:21;100720.19;;;4.66;100.00
71774;BME280;59607;52.130;5.430;2024-01-06T03:37:50;100724.47;;;4.67;100.00
71774;BME280;59607;52.130;5.430;2024-01-06T03:40:17;100727.06;;;4.67;100.00
71774;BME280;59607;52.130;5.430;2024-01-06T03:42:46;100742.16;;;4.73;100.00
71774;BME280;59607;52.130;5.430;2024-01-06T03:45:16;100741.44;;;4.71;100.00
71774;BME280;59607;52.130;5.430;2024-01-06T03:47:48;100744.63;;;4.75;100.00
71774;BME280;59607;52.130;5.430;2024-01-06T03:50:18;100744.16;;;4.69;100.00
71774;BME280;59607;52.130;5.430;2024-01-06T03:52:44;100752.22;;;4.66;100.00
71774;BME280;59607;52.130;5.430;2024-01-06T03:55:18;100743.34;;;4.69;100.00
71774;BME280;59607;52.130;5.430;2024-01-06T03:57:45;100759.44;;;4.63;100.00
71774;BME280;59607;52.130;5.430;2024-01-06T04:00:14;100763.22;;;4.59;100.00
71774;BME280;59607;52.130;5.430;2024-01-06T04:02:40;100755.38;;;4.49;100.00
71774;BME280;59607;52.130;5.430;2024-01-06T04:05:07;100767.97;;;4.53;100.00
71774;BME280;59607;52.130;5.430;2024-01-06T04:07:36;100765.28;;;4.43;100.00
71774;BME280;59607;52.130;5.430;2024-01-06T04:10:05;100771.94;;;4.36;100.00
71774;BME280;59607;52.130;5.430;2024-01-06T04:12:32;100776.69;;;4.31;100.00
71774;BME280;59607;52.130;5.430;2024-01-06T04:14:58;100770.53;;;4.32;100.00
71774;BME280;59607;52.130;5.430;2024-01-06T04:17:25;100773.84;;;4.34;100.00
71774;BME280;59607;52.130;5.430;2024-01-06T04:19:56;100770.75;;;4.40;100.00
71774;BME280;59607;52.130;5.430;2024-01-06T04:22:24;100776.31;;;4.36;100.00
71774;BME280;59607;52.130;5.430;2024-01-06T04:24:56;100771.59;;;4.29;100.00
71774;BME280;59607;52.130;5.430;2024-01-06T04:27:22;100770.78;;;4.29;100.00
71774;BME280;59607;52.130;5.430;2024-01-06T04:29:56;100771.72;;;4.28;100.00
71774;BME280;59607;52.130;5.430;2024-01-06T04:32:23;100782.00;;;4.29;100.00
71774;BME280;59607;52.130;5.430;2024-01-06T04:34:50;100776.56;;;4.32;100.00
71774;BME280;59607;52.130;5.430;2024-01-06T04:37:16;100776.56;;;4.32;100.00
71774;BME280;59607;52.130;5.430;2024-01-06T04:39:42;100779.66;;;4.26;100.00
71774;BME280;59607;52.130;5.430;2024-01-06T04:42:09;100786.72;;;4.24;100.00
71774;BME280;59607;52.130;5.430;2024-01-06T04:44:35;100783.41;;;4.22;100.00
71774;BME280;59607;52.130;5.430;2024-01-06T04:47:08;100805.38;;;4.18;100.00
71774;BME280;59607;52.130;5.430;2024-01-06T04:49:34;100796.28;;;4.12;100.00
71774;BME280;59607;52.130;5.430;2024-01-06T04:52:01;100793.81;;;4.11;100.00
71774;BME280;59607;52.130;5.430;2024-01-06T04:54:28;100806.25;;;4.07;100.00
71774;BME280;59607;52.130;5.430;2024-01-06T04:56:58;100800.22;;;4.06;100.00
71774;BME280;59607;52.130;5.430;2024-01-06T04:59:24;100801.63;;;3.99;100.00
71774;BME280;59607;52.130;5.430;2024-01-06T05:01:51;100815.69;;;3.97;100.00
71774;BME280;59607;52.130;5.430;2024-01-06T05:04:22;100818.63;;;4.03;100.00
71774;BME280;59607;52.130;5.430;2024-01-06T05:06:54;100821.72;;;3.97;100.00
71774;BME280;59607;52.130;5.430;2024-01-06T05:09:28;100813.91;;;3.97;100.00
71774;BME280;59607;52.130;5.430;2024-01-06T05:11:57;100819.13;;;3.97;100.00
71774;BME280;59607;52.130;5.430;2024-01-06T05:14:26;100833.47;;;4.01;100.00
71774;BME280;59607;52.130;5.430;2024-01-06T05:16:53;100830.28;;;3.98;100.00
71774;BME280;59607;52.130;5.430;2024-01-06T05:19:31;100827.59;;;3.99;100.00
71774;BME280;59607;52.130;5.430;2024-01-06T05:21:58;100835.84;;;4.04;100.00
71774;BME280;59607;52.130;5.430;2024-01-06T05:24:31;100842.09;;;4.02;100.00
71774;BME280;59607;52.130;5.430;2024-01-06T05:27:00;100848.22;;;4.01;100.00
71774;BME280;59607;52.130;5.430;2024-01-06T05:29:32;100848.94;;;4.03;100.00
71774;BME280;59607;52.130;5.430;2024-01-06T05:31:59;100866.38;;;4.01;100.00
71774;BME280;59607;52.130;5.430;2024-01-06T05:34:26;100852.38;;;3.92;100.00
71774;BME280;59607;52.130;5.430;2024-01-06T05:36:57;100854.38;;;3.88;100.00
71774;BME280;59607;52.130;5.430;2024-01-06T05:39:23;100856.72;;;3.91;100.00
71774;BME280;59607;52.130;5.430;2024-01-06T05:41:54;100861.91;;;3.91;100.00
71774;BME280;59607;52.130;5.430;2024-01-06T05:44:25;100860.16;;;3.92;100.00
71774;BME280;59607;52.130;5.430;2024-01-06T05:46:54;100866.38;;;3.89;100.00
71774;BME280;59607;52.130;5.430;2024-01-06T05:49:30;100863.22;;;3.86;100.00
71774;BME280;59607;52.130;5.430;2024-01-06T05:52:05;100874.75;;;3.81;100.00
71774;BME280;59607;52.130;5.430;2024-01-06T05:54:31;100873.25;;;3.79;100.00
71774;BME280;59607;52.130;5.430;2024-01-06T05:56:59;100877.47;;;3.80;100.00
71774;BME280;59607;52.130;5.430;2024-01-06T05:59:29;100879.03;;;3.71;100.00
71774;BME280;59607;52.130;5.430;2024-01-06T06:01:58;100878.91;;;3.73;100.00
71774;BME280;59607;52.130;5.430;2024-01-06T06:04:32;100876.06;;;3.76;100.00
71774;BME280;59607;52.130;5.430;2024-01-06T06:06:59;100890.09;;;3.62;100.00
71774;BME280;59607;52.130;5.430;2024-01-06T06:09:28;100902.22;;;3.61;100.00
71774;BME280;59607;52.130;5.430;2024-01-06T06:11:58;100897.16;;;3.60;100.00
71774;BME280;59607;52.130;5.430;2024-01-06T06:14:29;100900.47;;;3.62;100.00
71774;BME280;59607;52.130;5.430;2024-01-06T06:16:59;100904.34;;;3.56;100.00
71774;BME280;59607;52.130;5.430;2024-01-06T06:19:25;100907.41;;;3.61;100.00
71774;BME280;59607;52.130;5.430;2024-01-06T06:21:52;100916.72;;;3.64;100.00
71774;BME280;59607;52.130;5.430;2024-01-06T06:24:24;100920.13;;;3.53;100.00
71774;BME280;59607;52.130;5.430;2024-01-06T06:26:51;100923.91;;;3.49;100.00
71774;BME280;59607;52.130;5.430;2024-01-06T06:29:26;100923.91;;;3.49;100.00
71774;BME280;59607;52.130;5.430;2024-01-06T06:31:55;100930.84;;;3.48;100.00
71774;BME280;59607;52.130;5.430;2024-01-06T06:34:24;100932.94;;;3.43;100.00
71774;BME280;59607;52.130;5.430;2024-01-06T06:36:50;100936.50;;;3.42;100.00
71774;BME280;59607;52.130;5.430;2024-01-06T06:39:17;100933.19;;;3.40;100.00
71774;BME280;59607;52.130;5.430;2024-01-06T06:41:53;100936.50;;;3.42;100.00
71774;BME280;59607;52.130;5.430;2024-01-06T06:44:20;100951.09;;;3.43;100.00
71774;BME280;59607;52.130;5.430;2024-01-06T06:46:46;100952.06;;;3.42;100.00
71774;BME280;59607;52.130;5.430;2024-01-06T06:49:13;100963.47;;;3.39;100.00
71774;BME280;59607;52.130;5.430;2024-01-06T06:51:39;100965.25;;;3.39;100.00
71774;BME280;59607;52.130;5.430;2024-01-06T06:54:13;100969.38;;;3.41;100.00
71774;BME280;59607;52.130;5.430;2024-01-06T06:56:44;100975.88;;;3.47;100.00
71774;BME280;59607;52.130;5.430;2024-01-06T06:59:16;100975.63;;;3.39;100.00
71774;BME280;59607;52.130;5.430;2024-01-06T07:01:45;100971.34;;;3.38;100.00
71774;BME280;59607;52.130;5.430;2024-01-06T07:04:12;100991.88;;;3.41;100.00
71774;BME280;59607;52.130;5.430;2024-01-06T07:06:38;101006.50;;;3.42;100.00
71774;BME280;59607;52.130;5.430;2024-01-06T07:09:11;100996.81;;;3.44;100.00
71774;BME280;59607;52.130;5.430;2024-01-06T07:11:37;100994.78;;;3.36;100.00
71774;BME280;59607;52.130;5.430;2024-01-06T07:14:13;101013.56;;;3.40;100.00
71774;BME280;59607;52.130;5.430;2024-01-06T07:16:39;101008.59;;;3.37;100.00
71774;BME280;59607;52.130;5.430;2024-01-06T07:19:06;101004.72;;;3.42;100.00
71774;BME280;59607;52.130;5.430;2024-01-06T07:24:13;101021.34;;;3.40;100.00
71774;BME280;59607;52.130;5.430;2024-01-06T07:26:44;101023.69;;;3.43;100.00
71774;BME280;59607;52.130;5.430;2024-01-06T07:29:17;101022.28;;;3.39;100.00
71774;BME280;59607;52.130;5.430;2024-01-06T07:31:51;101019.81;;;3.37;100.00
71774;BME280;59607;52.130;5.430;2024-01-06T07:34:25;101024.66;;;3.42;100.00
71774;BME280;59607;52.130;5.430;2024-01-06T07:36:52;101029.50;;;3.47;100.00
71774;BME280;59607;52.130;5.430;2024-01-06T07:39:19;101033.63;;;3.49;100.00
71774;BME280;59607;52.130;5.430;2024-01-06T07:41:50;101035.59;;;3.45;100.00
71774;BME280;59607;52.130;5.430;2024-01-06T07:44:16;101043.72;;;3.41;100.00
71774;BME280;59607;52.130;5.430;2024-01-06T07:46:52;101042.06;;;3.40;100.00
71774;BME280;59607;52.130;5.430;2024-01-06T07:49:19;101047.25;;;3.40;100.00
71774;BME280;59607;52.130;5.430;2024-01-06T07:51:49;101066.25;;;3.40;100.00
71774;BME280;59607;52.130;5.430;2024-01-06T07:54:16;101071.56;;;3.39;100.00
71774;BME280;59607;52.130;5.430;2024-01-06T07:56:42;101068.84;;;3.40;100.00
71774;BME280;59607;52.130;5.430;2024-01-06T07:59:10;101079.09;;;3.42;100.00
71774;BME280;59607;52.130;5.430;2024-01-06T08:01:42;101068.63;;;3.43;100.00
71774;BME280;59607;52.130;5.430;2024-01-06T08:04:14;101062.38;;;3.46;100.00
71774;BME280;59607;52.130;5.430;2024-01-06T08:06:43;101075.97;;;3.50;100.00
71774;BME280;59607;52.130;5.430;2024-01-06T08:09:10;101073.88;;;3.55;100.00
71774;BME280;59607;52.130;5.430;2024-01-06T08:11:36;101087.06;;;3.52;100.00
71774;BME280;59607;52.130;5.430;2024-01-06T08:14:07;101095.75;;;3.51;100.00
71774;BME280;59607;52.130;5.430;2024-01-06T08:16:34;101093.06;;;3.52;100.00
71774;BME280;59607;52.130;5.430;2024-01-06T08:19:01;101095.66;;;3.52;100.00
71774;BME280;59607;52.130;5.430;2024-01-06T08:21:33;101091.91;;;3.56;100.00
71774;BME280;59607;52.130;5.430;2024-01-06T08:24:01;101102.78;;;3.62;100.00
71774;BME280;59607;52.130;5.430;2024-01-06T08:26:31;101105.38;;;3.62;100.00
71774;BME280;59607;52.130;5.430;2024-01-06T08:29:01;101101.22;;;3.59;100.00
71774;BME280;59607;52.130;5.430;2024-01-06T08:31:28;101104.88;;;3.56;100.00
71774;BME280;59607;52.130;5.430;2024-01-06T08:33:54;101113.56;;;3.55;100.00
71774;BME280;59607;52.130;5.430;2024-01-06T08:36:29;101119.50;;;3.57;100.00
71774;BME280;59607;52.130;5.430;2024-01-06T08:38:58;101124.78;;;3.56;100.00
71774;BME280;59607;52.130;5.430;2024-01-06T08:41:27;101126.66;;;3.54;100.00
71774;BME280;59607;52.130;5.430;2024-01-06T08:43:54;101133.63;;;3.53;100.00
71774;BME280;59607;52.130;5.430;2024-01-06T08:46:26;101136.13;;;3.55;100.00
71774;BME280;59607;52.130;5.430;2024-01-06T08:48:53;101130.09;;;3.54;100.00
71774;BME280;59607;52.130;5.430;2024-01-06T08:51:19;101146.28;;;3.58;100.00
71774;BME280;59607;52.130;5.430;2024-01-06T08:53:52;101151.03;;;3.64;100.00
71774;BME280;59607;52.130;5.430;2024-01-06T08:56:20;101153.94;;;3.60;100.00
71774;BME280;59607;52.130;5.430;2024-01-06T08:58:49;101157.56;;;3.57;100.00
71774;BME280;59607;52.130;5.430;2024-01-06T09:01:18;101157.97;;;3.64;100.00
71774;BME280;59607;52.130;5.430;2024-01-06T09:03:44;101166.59;;;3.64;100.00
71774;BME280;59607;52.130;5.430;2024-01-06T09:06:17;101167.41;;;3.65;100.00
71774;BME280;59607;52.130;5.430;2024-01-06T09:08:43;101173.19;;;3.68;100.00
71774;BME280;59607;52.130;5.430;2024-01-06T09:11:16;101171.44;;;3.69;100.00
71774;BME280;59607;52.130;5.430;2024-01-06T09:13:42;101171.94;;;3.74;100.00
71774;BME280;59607;52.130;5.430;2024-01-06T09:16:09;101177.66;;;3.79;100.00
71774;BME280;59607;52.130;5.430;2024-01-06T09:18:37;101184.59;;;3.79;100.00
71774;BME280;59607;52.130;5.430;2024-01-06T09:21:06;101180.47;;;3.76;100.00
71774;BME280;59607;52.130;5.430;2024-01-06T09:23:33;101191.88;;;3.74;100.00
71774;BME280;59607;52.130;5.430;2024-01-06T09:25:59;101201.00;;;3.79;100.00
71774;BME280;59607;52.130;5.430;2024-01-06T09:28:32;101201.34;;;3.86;100.00
71774;BME280;59607;52.130;5.430;2024-01-06T09:30:58;101209.25;;;3.85;100.00
71774;BME280;59607;52.130;5.430;2024-01-06T09:33:35;101203.25;;;3.84;100.00
71774;BME280;59607;52.130;5.430;2024-01-06T09:36:02;101209.75;;;3.90;100.00
71774;BME280;59607;52.130;5.430;2024-01-06T09:38:38;101216.53;;;3.92;100.00
71774;BME280;59607;52.130;5.430;2024-01-06T09:41:04;101224.50;;;3.89;100.00
71774;BME280;59607;52.130;5.430;2024-01-06T09:43:34;101217.66;;;3.88;100.00
71774;BME280;59607;52.130;5.430;2024-01-06T09:46:20;101236.00;;;3.98;100.00
71774;BME280;59607;52.130;5.430;2024-01-06T09:48:49;101235.06;;;3.99;100.00
71774;BME280;59607;52.130;5.430;2024-01-06T09:51:24;101234.84;;;4.02;100.00
71774;BME280;59607;52.130;5.430;2024-01-06T09:53:58;101235.50;;;3.93;100.00
71774;BME280;59607;52.130;5.430;2024-01-06T09:56:31;101233.63;;;3.95;100.00
71774;BME280;59607;52.130;5.430;2024-01-06T09:58:58;101234.25;;;3.99;100.00
71774;BME280;59607;52.130;5.430;2024-01-06T10:01:38;101241.19;;;3.98;100.00
71774;BME280;59607;52.130;5.430;2024-01-06T10:04:22;101248.47;;;3.93;100.00
71774;BME280;59607;52.130;5.430;2024-01-06T10:06:53;101246.59;;;3.95;100.00
71774;BME280;59607;52.130;5.430;2024-01-06T10:09:26;101247.00;;;4.02;100.00
71774;BME280;59607;52.130;5.430;2024-01-06T10:11:56;101255.19;;;4.09;100.00
71774;BME280;59607;52.130;5.430;2024-01-06T10:14:24;101267.03;;;4.00;100.00
71774;BME280;59607;52.130;5.430;2024-01-06T10:16:54;101259.59;;;3.95;100.00
71774;BME280;59607;52.130;5.430;2024-01-06T10:19:20;101267.81;;;3.89;100.00
71774;BME280;59607;52.130;5.430;2024-01-06T10:21:47;101273.63;;;3.92;100.00
71774;BME280;59607;52.130;5.430;2024-01-06T10:24:18;101268.78;;;3.99;100.00
71774;BME280;59607;52.130;5.430;2024-01-06T10:26:45;101286.16;;;3.99;100.00
71774;BME280;59607;52.130;5.430;2024-01-06T10:29:18;101282.72;;;3.98;100.00
71774;BME280;59607;52.130;5.430;2024-01-06T10:31:48;101289.78;;;3.96;100.00
71774;BME280;59607;52.130;5.430;2024-01-06T10:34:21;101292.16;;;3.99;100.00
71774;BME280;59607;52.130;5.430;2024-01-06T10:36:51;101288.44;;;4.03;100.00
71774;BME280;59607;52.130;5.430;2024-01-06T10:39:19;101289.56;;;3.99;100.00
71774;BME280;59607;52.130;5.430;2024-01-06T10:41:53;101293.72;;;4.02;100.00
71774;BME280;59607;52.130;5.430;2024-01-06T10:44:21;101287.38;;;4.06;100.00
71774;BME280;59607;52.130;5.430;2024-01-06T10:46:59;101296.94;;;4.05;100.00
71774;BME280;59607;52.130;5.430;2024-01-06T10:49:27;101302.72;;;4.09;100.00
71774;BME280;59607;52.130;5.430;2024-01-06T10:52:01;101298.28;;;3.98;100.00
71774;BME280;59607;52.130;5.430;2024-01-06T10:54:30;101287.63;;;3.90;100.00
71774;BME280;59607;52.130;5.430;2024-01-06T10:57:04;101298.28;;;3.98;100.00
71774;BME280;59607;52.130;5.430;2024-01-06T10:59:32;101296.03;;;3.93;100.00
71774;BME280;59607;52.130;5.430;2024-01-06T11:02:11;101305.06;;;3.88;100.00
71774;BME280;59607;52.130;5.430;2024-01-06T11:04:40;101302.34;;;3.89;100.00
71774;BME280;59607;52.130;5.430;2024-01-06T11:07:08;101304.75;;;3.92;100.00
71774;BME280;59607;52.130;5.430;2024-01-06T11:09:37;101307.72;;;3.99;100.00
71774;BME280;59607;52.130;5.430;2024-01-06T11:12:11;101301.91;;;4.09;100.00
71774;BME280;59607;52.130;5.430;2024-01-06T11:14:38;101317.72;;;4.05;100.00
71774;BME280;59607;52.130;5.430;2024-01-06T11:17:04;101314.28;;;4.05;100.00
71774;BME280;59607;52.130;5.430;2024-01-06T11:22:27;101313.19;;;4.20;100.00
71774;BME280;59607;52.130;5.430;2024-01-06T11:25:33;101322.94;;;4.17;100.00
71774;BME280;59607;52.130;5.430;2024-01-06T11:28:09;101323.91;;;4.16;100.00
71774;BME280;59607;52.130;5.430;2024-01-06T11:30:44;101324.28;;;4.23;100.00
71774;BME280;59607;52.130;5.430;2024-01-06T11:33:12;101315.78;;;4.20;100.00
71774;BME280;59607;52.130;5.430;2024-01-06T11:35:44;101319.31;;;4.19;100.00
71774;BME280;59607;52.130;5.430;2024-01-06T11:38:22;101319.88;;;4.12;100.00
71774;BME280;59607;52.130;5.430;2024-01-06T11:40:58;101314.97;;;4.20;100.00
71774;BME280;59607;52.130;5.430;2024-01-06T11:43:34;101318.47;;;4.19;100.00
71774;BME280;59607;52.130;5.430;2024-01-06T11:46:05;101322.94;;;4.17;100.00
71774;BME280;59607;52.130;5.430;2024-01-06T11:48:37;101317.75;;;4.17;100.00
71774;BME280;59607;52.130;5.430;2024-01-06T11:51:05;101324.72;;;4.16;100.00
71774;BME280;59607;52.130;5.430;2024-01-06T11:53:36;101322.34;;;4.13;100.00
71774;BME280;59607;52.130;5.430;2024-01-06T11:56:05;101320.34;;;4.17;100.00
71774;BME280;59607;52.130;5.430;2024-01-06T11:58:35;101320.84;;;4.22;100.00
71774;BME280;59607;52.130;5.430;2024-01-06T12:01:03;101318.47;;;4.19;100.00
71774;BME280;59607;52.130;5.430;2024-01-06T12:03:30;101321.91;;;4.19;100.00
71774;BME280;59607;52.130;5.430;2024-01-06T12:06:04;101321.19;;;4.17;100.00
71774;BME280;59607;52.130;5.430;2024-01-06T12:08:32;101315.38;;;4.14;100.00
71774;BME280;59607;52.130;5.430;2024-01-06T12:11:06;101317.22;;;4.25;100.00
71774;BME280;59607;52.130;5.430;2024-01-06T12:13:33;101325.25;;;4.22;100.00
71774;BME280;59607;52.130;5.430;2024-01-06T12:16:00;101329.81;;;4.18;100.00
71774;BME280;59607;52.130;5.430;2024-01-06T12:18:34;101335.44;;;4.12;100.00
71774;BME280;59607;52.130;5.430;2024-01-06T12:21:07;101334.59;;;4.11;100.00
71774;BME280;59607;52.130;5.430;2024-01-06T12:23:41;101328.09;;;4.05;100.00
71774;BME280;59607;52.130;5.430;2024-01-06T12:26:10;101340.75;;;4.10;100.00
71774;BME280;59607;52.130;5.430;2024-01-06T12:28:40;101338.47;;;4.05;100.00
71774;BME280;59607;52.130;5.430;2024-01-06T12:31:13;101337.53;;;4.06;100.00
71774;BME280;59607;52.130;5.430;2024-01-06T12:33:42;101327.88;;;4.09;100.00
71774;BME280;59607;52.130;5.430;2024-01-06T12:36:13;101344.03;;;4.12;100.00
71774;BME280;59607;52.130;5.430;2024-01-06T12:38:55;101347.47;;;4.13;100.00
71774;BME280;59607;52.130;5.430;2024-01-06T12:41:25;101350.28;;;4.10;100.00
71774;BME280;59607;52.130;5.430;2024-01-06T12:44:10;101347.06;;;4.06;100.00
71774;BME280;59607;52.130;5.430;2024-01-06T12:46:36;101334.19;;;4.04;100.00
71774;BME280;59607;52.130;5.430;2024-01-06T12:49:09;101341.66;;;4.09;100.00
71774;BME280;59607;52.130;5.430;2024-01-06T12:51:36;101344.69;;;4.03;100.00
71774;BME280;59607;52.130;5.430;2024-01-06T12:54:11;101340.97;;;4.07;100.00
71774;BME280;59607;52.130;5.430;2024-01-06T12:56:37;101346.03;;;4.09;100.00
71774;BME280;59607;52.130;5.430;2024-01-06T12:59:04;101345.41;;;4.05;100.00
71774;BME280;59607;52.130;5.430;2024-01-06T13:01:35;101353.44;;;4.02;100.00
71774;BME280;59607;52.130;5.430;2024-01-06T13:04:02;101346.88;;;3.96;100.00
71774;BME280;59607;52.130;5.430;2024-01-06T13:06:38;101351.25;;;3.95;100.00
71774;BME280;59607;52.130;5.430;2024-01-06T13:09:08;101346.38;;;4.04;100.00
71774;BME280;59607;52.130;5.430;2024-01-06T13:11:42;101356.56;;;3.94;100.00